Terminal Aerodrome Forecast
Issued by NWS Medford, OR

Current Version | Previous Version | Text Only | Print | Product List | Glossary On
Versions: 1 2 3 4 5 6 7 8 9 10 11
107
FTUS46 KMFR 292340
TAFMFR
TAF
KMFR 292340Z 3000/3024 01007KT P6SM BKN200
     FM300800 00000KT P6SM SCT080 OVC120=

USA.gov is the U.S. government's official web portal to all federal, state and local government web resources and services.